sensor_id;sensor_type;location;lat;lon;timestamp;temperature;humidity
23550;DHT22;11953;49.010;8.608;2022-09-25T00:00:42;14.40;99.90
23550;DHT22;11953;49.010;8.608;2022-09-25T00:03:29;14.40;99.90
23550;DHT22;11953;49.010;8.608;2022-09-25T00:06:19;14.50;99.90
23550;DHT22;11953;49.010;8.608;2022-09-25T00:09:06;14.50;99.90
23550;DHT22;11953;49.010;8.608;2022-09-25T00:11:54;14.50;99.90
23550;DHT22;11953;49.010;8.608;2022-09-25T00:14:41;14.40;99.90
23550;DHT22;11953;49.010;8.608;2022-09-25T00:17:29;14.50;99.90
23550;DHT22;11953;49.010;8.608;2022-09-25T00:20:16;14.50;99.90
23550;DHT22;11953;49.010;8.608;2022-09-25T00:23:02;14.40;99.90
23550;DHT22;11953;49.010;8.608;2022-09-25T00:25:52;14.40;99.90
23550;DHT22;11953;49.010;8.608;2022-09-25T00:28:39;14.40;99.90
23550;DHT22;11953;49.010;8.608;2022-09-25T00:31:27;14.40;99.90
23550;DHT22;11953;49.010;8.608;2022-09-25T00:34:15;14.40;99.90
23550;DHT22;11953;49.010;8.608;2022-09-25T00:37:02;14.30;99.90
23550;DHT22;11953;49.010;8.608;2022-09-25T00:39:48;14.20;99.90
23550;DHT22;11953;49.010;8.608;2022-09-25T00:42:35;14.30;99.90
23550;DHT22;11953;49.010;8.608;2022-09-25T00:45:21;14.30;99.90
23550;DHT22;11953;49.010;8.608;2022-09-25T00:48:10;14.40;99.90
23550;DHT22;11953;49.010;8.608;2022-09-25T00:51:00;14.30;99.90
23550;DHT22;11953;49.010;8.608;2022-09-25T00:53:47;14.40;99.90
23550;DHT22;11953;49.010;8.608;2022-09-25T00:56:38;14.40;99.90
23550;DHT22;11953;49.010;8.608;2022-09-25T00:59:28;14.30;99.90
23550;DHT22;11953;49.010;8.608;2022-09-25T01:02:20;14.40;99.90
23550;DHT22;11953;49.010;8.608;2022-09-25T01:05:12;14.50;99.90
23550;DHT22;11953;49.010;8.608;2022-09-25T01:08:03;14.60;99.90
23550;DHT22;11953;49.010;8.608;2022-09-25T01:10:51;14.60;99.90
23550;DHT22;11953;49.010;8.608;2022-09-25T01:13:37;14.60;99.90
23550;DHT22;11953;49.010;8.608;2022-09-25T01:16:28;14.60;99.90
23550;DHT22;11953;49.010;8.608;2022-09-25T01:19:25;14.60;99.90
23550;DHT22;11953;49.010;8.608;2022-09-25T01:22:22;14.50;99.90
23550;DHT22;11953;49.010;8.608;2022-09-25T01:25:25;14.50;99.90
23550;DHT22;11953;49.010;8.608;2022-09-25T01:28:36;14.40;99.90
23550;DHT22;11953;49.010;8.608;2022-09-25T01:31:28;14.40;99.90
23550;DHT22;11953;49.010;8.608;2022-09-25T01:34:19;14.40;99.90
23550;DHT22;11953;49.010;8.608;2022-09-25T01:37:14;14.40;99.90
23550;DHT22;11953;49.010;8.608;2022-09-25T01:40:02;14.40;99.90
23550;DHT22;11953;49.010;8.608;2022-09-25T01:42:55;14.50;99.90
23550;DHT22;11953;49.010;8.608;2022-09-25T01:45:49;14.50;99.90
23550;DHT22;11953;49.010;8.608;2022-09-25T01:48:38;14.60;99.90
23550;DHT22;11953;49.010;8.608;2022-09-25T01:51:28;14.70;99.90
23550;DHT22;11953;49.010;8.608;2022-09-25T01:54:21;14.70;99.90
23550;DHT22;11953;49.010;8.608;2022-09-25T01:57:11;14.70;99.90
23550;DHT22;11953;49.010;8.608;2022-09-25T02:00:04;14.70;99.90
23550;DHT22;11953;49.010;8.608;2022-09-25T02:03:00;14.70;99.90
23550;DHT22;11953;49.010;8.608;2022-09-25T02:05:52;14.70;99.90
23550;DHT22;11953;49.010;8.608;2022-09-25T02:08:43;14.70;99.90
23550;DHT22;11953;49.010;8.608;2022-09-25T02:11:34;14.60;99.90
23550;DHT22;11953;49.010;8.608;2022-09-25T02:14:27;14.40;99.90
23550;DHT22;11953;49.010;8.608;2022-09-25T02:17:22;14.40;99.90
23550;DHT22;11953;49.010;8.608;2022-09-25T02:20:29;14.40;99.90
23550;DHT22;11953;49.010;8.608;2022-09-25T02:23:21;14.30;99.90
23550;DHT22;11953;49.010;8.608;2022-09-25T02:26:12;14.40;99.90
23550;DHT22;11953;49.010;8.608;2022-09-25T02:29:02;14.40;99.90
23550;DHT22;11953;49.010;8.608;2022-09-25T02:31:52;14.40;99.90
23550;DHT22;11953;49.010;8.608;2022-09-25T02:34:40;14.40;99.90
23550;DHT22;11953;49.010;8.608;2022-09-25T02:37:28;14.50;99.90
23550;DHT22;11953;49.010;8.608;2022-09-25T02:40:15;14.50;99.90
23550;DHT22;11953;49.010;8.608;2022-09-25T02:43:08;14.60;99.90
23550;DHT22;11953;49.010;8.608;2022-09-25T02:46:03;14.50;99.90
23550;DHT22;11953;49.010;8.608;2022-09-25T02:48:53;14.50;99.90
23550;DHT22;11953;49.010;8.608;2022-09-25T02:51:47;14.50;99.90
23550;DHT22;11953;49.010;8.608;2022-09-25T02:54:44;14.50;99.90
23550;DHT22;11953;49.010;8.608;2022-09-25T02:57:38;14.40;99.90
23550;DHT22;11953;49.010;8.608;2022-09-25T03:00:28;14.40;99.90
23550;DHT22;11953;49.010;8.608;2022-09-25T03:03:16;14.50;99.90
23550;DHT22;11953;49.010;8.608;2022-09-25T03:06:05;14.40;99.90
23550;DHT22;11953;49.010;8.608;2022-09-25T03:08:55;14.40;99.90
23550;DHT22;11953;49.010;8.608;2022-09-25T03:11:44;14.40;99.90
23550;DHT22;11953;49.010;8.608;2022-09-25T03:14:31;14.40;99.90
23550;DHT22;11953;49.010;8.608;2022-09-25T03:17:18;14.50;99.90
23550;DHT22;11953;49.010;8.608;2022-09-25T03:20:06;14.50;99.90
23550;DHT22;11953;49.010;8.608;2022-09-25T03:22:54;14.40;99.90
23550;DHT22;11953;49.010;8.608;2022-09-25T03:25:40;14.40;99.90
23550;DHT22;11953;49.010;8.608;2022-09-25T03:28:36;14.50;99.90
23550;DHT22;11953;49.010;8.608;2022-09-25T03:31:22;14.50;99.90
23550;DHT22;11953;49.010;8.608;2022-09-25T03:34:10;14.50;99.90
23550;DHT22;11953;49.010;8.608;2022-09-25T03:36:57;14.50;99.90
23550;DHT22;11953;49.010;8.608;2022-09-25T03:39:44;14.60;99.90
23550;DHT22;11953;49.010;8.608;2022-09-25T03:42:30;14.50;99.90
23550;DHT22;11953;49.010;8.608;2022-09-25T03:45:18;14.50;99.90
23550;DHT22;11953;49.010;8.608;2022-09-25T03:48:04;14.50;99.90
23550;DHT22;11953;49.010;8.608;2022-09-25T03:50:51;14.60;99.90
23550;DHT22;11953;49.010;8.608;2022-09-25T03:53:37;14.60;99.90
23550;DHT22;11953;49.010;8.608;2022-09-25T03:56:26;14.50;99.90
23550;DHT22;11953;49.010;8.608;2022-09-25T03:59:14;14.50;99.90
23550;DHT22;11953;49.010;8.608;2022-09-25T04:02:02;14.60;99.90
23550;DHT22;11953;49.010;8.608;2022-09-25T04:04:49;14.50;99.90
23550;DHT22;11953;49.010;8.608;2022-09-25T04:07:36;14.50;99.90
23550;DHT22;11953;49.010;8.608;2022-09-25T04:10:23;14.40;99.90
23550;DHT22;11953;49.010;8.608;2022-09-25T04:13:09;14.50;99.90
23550;DHT22;11953;49.010;8.608;2022-09-25T04:15:58;14.50;99.90
23550;DHT22;11953;49.010;8.608;2022-09-25T04:18:47;14.50;99.90
23550;DHT22;11953;49.010;8.608;2022-09-25T04:21:34;14.50;99.90
23550;DHT22;11953;49.010;8.608;2022-09-25T04:24:21;14.50;99.90
23550;DHT22;11953;49.010;8.608;2022-09-25T04:27:24;14.50;99.90
23550;DHT22;11953;49.010;8.608;2022-09-25T04:30:12;14.60;99.90
23550;DHT22;11953;49.010;8.608;2022-09-25T04:32:59;14.50;99.90
23550;DHT22;11953;49.010;8.608;2022-09-25T04:36:05;14.40;99.90
23550;DHT22;11953;49.010;8.608;2022-09-25T04:38:51;14.50;99.90
23550;DHT22;11953;49.010;8.608;2022-09-25T04:41:38;14.40;99.90
23550;DHT22;11953;49.010;8.608;2022-09-25T04:44:24;14.40;99.90
23550;DHT22;11953;49.010;8.608;2022-09-25T04:47:12;14.30;99.90
23550;DHT22;11953;49.010;8.608;2022-09-25T04:49:58;14.30;99.90
23550;DHT22;11953;49.010;8.608;2022-09-25T04:52:46;14.30;99.90
23550;DHT22;11953;49.010;8.608;2022-09-25T04:55:34;14.30;99.90
23550;DHT22;11953;49.010;8.608;2022-09-25T04:58:23;14.40;99.90
23550;DHT22;11953;49.010;8.608;2022-09-25T05:01:09;14.40;99.90
23550;DHT22;11953;49.010;8.608;2022-09-25T05:03:56;14.30;99.90
23550;DHT22;11953;49.010;8.608;2022-09-25T05:06:43;14.40;99.90
23550;DHT22;11953;49.010;8.608;2022-09-25T05:09:31;14.30;99.90
23550;DHT22;11953;49.010;8.608;2022-09-25T05:12:18;14.40;99.90
23550;DHT22;11953;49.010;8.608;2022-09-25T05:15:06;14.40;99.90
23550;DHT22;11953;49.010;8.608;2022-09-25T05:17:59;14.50;99.90
23550;DHT22;11953;49.010;8.608;2022-09-25T05:20:45;14.40;99.90
23550;DHT22;11953;49.010;8.608;2022-09-25T05:23:32;14.40;99.90
23550;DHT22;11953;49.010;8.608;2022-09-25T05:26:20;14.50;99.90
23550;DHT22;11953;49.010;8.608;2022-09-25T05:29:07;14.50;99.90
23550;DHT22;11953;49.010;8.608;2022-09-25T05:31:54;14.50;99.90
23550;DHT22;11953;49.010;8.608;2022-09-25T05:34:41;14.50;99.90
23550;DHT22;11953;49.010;8.608;2022-09-25T05:37:27;14.40;99.90
23550;DHT22;11953;49.010;8.608;2022-09-25T05:40:14;14.40;99.90
23550;DHT22;11953;49.010;8.608;2022-09-25T05:43:03;14.30;99.90
23550;DHT22;11953;49.010;8.608;2022-09-25T05:45:53;14.20;99.90
23550;DHT22;11953;49.010;8.608;2022-09-25T05:48:39;14.20;99.90
23550;DHT22;11953;49.010;8.608;2022-09-25T05:51:26;14.20;99.90
23550;DHT22;11953;49.010;8.608;2022-09-25T05:54:12;14.20;99.90
23550;DHT22;11953;49.010;8.608;2022-09-25T05:56:59;14.20;99.90
23550;DHT22;11953;49.010;8.608;2022-09-25T05:59:46;14.20;99.90
23550;DHT22;11953;49.010;8.608;2022-09-25T06:02:33;14.20;99.90
23550;DHT22;11953;49.010;8.608;2022-09-25T06:05:20;14.30;99.90
23550;DHT22;11953;49.010;8.608;2022-09-25T06:08:07;14.40;99.90
23550;DHT22;11953;49.010;8.608;2022-09-25T06:10:54;14.40;99.90
23550;DHT22;11953;49.010;8.608;2022-09-25T06:13:40;14.40;99.90
23550;DHT22;11953;49.010;8.608;2022-09-25T06:16:37;14.40;99.90
23550;DHT22;11953;49.010;8.608;2022-09-25T06:19:24;14.30;99.90
23550;DHT22;11953;49.010;8.608;2022-09-25T06:22:13;14.30;99.90
23550;DHT22;11953;49.010;8.608;2022-09-25T06:24:59;14.30;99.90
23550;DHT22;11953;49.010;8.608;2022-09-25T06:27:46;14.30;99.90
23550;DHT22;11953;49.010;8.608;2022-09-25T06:30:33;14.30;99.90
23550;DHT22;11953;49.010;8.608;2022-09-25T06:33:22;14.30;99.90
23550;DHT22;11953;49.010;8.608;2022-09-25T06:36:09;14.30;99.90
23550;DHT22;11953;49.010;8.608;2022-09-25T06:38:55;14.40;99.90
23550;DHT22;11953;49.010;8.608;2022-09-25T06:41:41;14.40;99.90
23550;DHT22;11953;49.010;8.608;2022-09-25T06:44:29;14.40;99.90
23550;DHT22;11953;49.010;8.608;2022-09-25T06:47:15;14.30;99.90
23550;DHT22;11953;49.010;8.608;2022-09-25T06:50:08;14.30;99.90
23550;DHT22;11953;49.010;8.608;2022-09-25T06:52:56;14.30;99.90
23550;DHT22;11953;49.010;8.608;2022-09-25T06:55:43;14.30;99.90
23550;DHT22;11953;49.010;8.608;2022-09-25T06:58:30;14.30;99.90
23550;DHT22;11953;49.010;8.608;2022-09-25T07:01:16;14.30;99.90
23550;DHT22;11953;49.010;8.608;2022-09-25T07:04:03;14.30;99.90
23550;DHT22;11953;49.010;8.608;2022-09-25T07:06:50;14.30;99.90
23550;DHT22;11953;49.010;8.608;2022-09-25T07:09:40;14.30;99.90
23550;DHT22;11953;49.010;8.608;2022-09-25T07:12:26;14.40;99.90
23550;DHT22;11953;49.010;8.608;2022-09-25T07:15:13;14.50;99.90
23550;DHT22;11953;49.010;8.608;2022-09-25T07:18:00;14.40;99.90
23550;DHT22;11953;49.010;8.608;2022-09-25T07:20:47;14.50;99.90
23550;DHT22;11953;49.010;8.608;2022-09-25T07:23:35;14.50;99.90
23550;DHT22;11953;49.010;8.608;2022-09-25T07:26:24;14.60;99.90
23550;DHT22;11953;49.010;8.608;2022-09-25T07:29:10;14.60;99.90
23550;DHT22;11953;49.010;8.608;2022-09-25T07:31:57;14.50;99.90
23550;DHT22;11953;49.010;8.608;2022-09-25T07:34:44;14.50;99.90
23550;DHT22;11953;49.010;8.608;2022-09-25T07:37:31;14.60;99.90
23550;DHT22;11953;49.010;8.608;2022-09-25T07:40:19;14.50;99.90
23550;DHT22;11953;49.010;8.608;2022-09-25T07:43:06;14.50;99.90
23550;DHT22;11953;49.010;8.608;2022-09-25T07:45:53;14.40;99.90
23550;DHT22;11953;49.010;8.608;2022-09-25T07:48:39;14.50;99.90
23550;DHT22;11953;49.010;8.608;2022-09-25T07:51:25;14.50;99.90
23550;DHT22;11953;49.010;8.608;2022-09-25T07:54:11;14.60;99.90
23550;DHT22;11953;49.010;8.608;2022-09-25T07:57:00;14.60;99.90
23550;DHT22;11953;49.010;8.608;2022-09-25T07:59:47;14.60;99.90
23550;DHT22;11953;49.010;8.608;2022-09-25T08:02:33;14.60;99.90
23550;DHT22;11953;49.010;8.608;2022-09-25T08:05:20;14.60;99.90
23550;DHT22;11953;49.010;8.608;2022-09-25T08:08:07;14.60;99.90
23550;DHT22;11953;49.010;8.608;2022-09-25T08:10:58;14.70;99.90
23550;DHT22;11953;49.010;8.608;2022-09-25T08:13:46;14.60;99.90
23550;DHT22;11953;49.010;8.608;2022-09-25T08:16:33;14.50;99.90
23550;DHT22;11953;49.010;8.608;2022-09-25T08:19:20;14.50;99.90
23550;DHT22;11953;49.010;8.608;2022-09-25T08:22:07;14.60;99.90
23550;DHT22;11953;49.010;8.608;2022-09-25T08:24:53;14.70;99.90
23550;DHT22;11953;49.010;8.608;2022-09-25T08:27:40;14.70;99.90
23550;DHT22;11953;49.010;8.608;2022-09-25T08:30:28;14.70;99.90
23550;DHT22;11953;49.010;8.608;2022-09-25T08:33:15;14.70;99.90
23550;DHT22;11953;49.010;8.608;2022-09-25T08:36:04;14.60;99.90
23550;DHT22;11953;49.010;8.608;2022-09-25T08:38:50;14.70;99.90
23550;DHT22;11953;49.010;8.608;2022-09-25T08:41:46;14.60;99.90
23550;DHT22;11953;49.010;8.608;2022-09-25T08:44:37;14.70;99.90
23550;DHT22;11953;49.010;8.608;2022-09-25T08:47:46;14.70;99.90
23550;DHT22;11953;49.010;8.608;2022-09-25T08:50:51;14.70;99.90
23550;DHT22;11953;49.010;8.608;2022-09-25T08:53:38;14.80;99.90
23550;DHT22;11953;49.010;8.608;2022-09-25T08:56:28;14.80;99.90
23550;DHT22;11953;49.010;8.608;2022-09-25T08:59:22;14.80;99.90
23550;DHT22;11953;49.010;8.608;2022-09-25T09:02:13;14.80;99.90
23550;DHT22;11953;49.010;8.608;2022-09-25T09:05:06;14.80;99.90
23550;DHT22;11953;49.010;8.608;2022-09-25T09:07:55;14.70;99.90
23550;DHT22;11953;49.010;8.608;2022-09-25T09:10:45;14.70;99.90
23550;DHT22;11953;49.010;8.608;2022-09-25T09:13:41;14.70;99.90
23550;DHT22;11953;49.010;8.608;2022-09-25T09:16:32;14.80;99.90
23550;DHT22;11953;49.010;8.608;2022-09-25T09:19:20;14.80;99.90
23550;DHT22;11953;49.010;8.608;2022-09-25T09:22:09;14.70;99.90
23550;DHT22;11953;49.010;8.608;2022-09-25T09:25:04;14.80;99.90
23550;DHT22;11953;49.010;8.608;2022-09-25T09:28:06;14.80;99.90
23550;DHT22;11953;49.010;8.608;2022-09-25T09:31:01;14.80;99.90
23550;DHT22;11953;49.010;8.608;2022-09-25T09:33:56;14.70;99.90
23550;DHT22;11953;49.010;8.608;2022-09-25T09:36:50;14.70;99.90
23550;DHT22;11953;49.010;8.608;2022-09-25T09:39:46;14.70;99.90
23550;DHT22;11953;49.010;8.608;2022-09-25T09:42:41;14.80;99.90
23550;DHT22;11953;49.010;8.608;2022-09-25T09:45:40;14.80;99.90
23550;DHT22;11953;49.010;8.608;2022-09-25T09:48:33;14.90;99.90
23550;DHT22;11953;49.010;8.608;2022-09-25T09:51:23;14.90;99.90
23550;DHT22;11953;49.010;8.608;2022-09-25T09:54:14;14.90;99.90
23550;DHT22;11953;49.010;8.608;2022-09-25T09:57:09;14.80;99.90
23550;DHT22;11953;49.010;8.608;2022-09-25T10:00:03;14.80;99.90
23550;DHT22;11953;49.010;8.608;2022-09-25T10:02:58;14.90;99.90
23550;DHT22;11953;49.010;8.608;2022-09-25T10:05:47;14.80;99.90
23550;DHT22;11953;49.010;8.608;2022-09-25T10:08:35;14.90;99.90
23550;DHT22;11953;49.010;8.608;2022-09-25T10:11:22;15.00;99.90
23550;DHT22;11953;49.010;8.608;2022-09-25T10:14:14;15.10;99.90
23550;DHT22;11953;49.010;8.608;2022-09-25T10:17:04;15.10;99.90
23550;DHT22;11953;49.010;8.608;2022-09-25T10:19:53;15.30;99.90
23550;DHT22;11953;49.010;8.608;2022-09-25T10:22:43;15.30;99.90
23550;DHT22;11953;49.010;8.608;2022-09-25T10:25:35;15.40;99.90
23550;DHT22;11953;49.010;8.608;2022-09-25T10:28:27;15.50;99.90
23550;DHT22;11953;49.010;8.608;2022-09-25T10:31:15;15.60;99.90
23550;DHT22;11953;49.010;8.608;2022-09-25T10:34:04;15.60;99.90
23550;DHT22;11953;49.010;8.608;2022-09-25T10:36:52;15.50;99.90
23550;DHT22;11953;49.010;8.608;2022-09-25T10:39:39;15.60;99.90
23550;DHT22;11953;49.010;8.608;2022-09-25T10:42:35;15.50;99.90
23550;DHT22;11953;49.010;8.608;2022-09-25T10:45:29;15.50;99.90
23550;DHT22;11953;49.010;8.608;2022-09-25T10:48:26;15.50;99.90
23550;DHT22;11953;49.010;8.608;2022-09-25T10:51:31;15.50;99.90
23550;DHT22;11953;49.010;8.608;2022-09-25T10:54:17;15.60;99.90
23550;DHT22;11953;49.010;8.608;2022-09-25T10:57:14;15.60;99.90
23550;DHT22;11953;49.010;8.608;2022-09-25T11:00:05;15.70;99.90
23550;DHT22;11953;49.010;8.608;2022-09-25T11:02:57;15.70;99.90
23550;DHT22;11953;49.010;8.608;2022-09-25T11:05:49;15.70;99.90
23550;DHT22;11953;49.010;8.608;2022-09-25T11:08:39;15.70;99.90
23550;DHT22;11953;49.010;8.608;2022-09-25T11:11:27;15.70;99.90
23550;DHT22;11953;49.010;8.608;2022-09-25T11:14:20;15.70;99.90
23550;DHT22;11953;49.010;8.608;2022-09-25T11:17:30;15.60;99.90
23550;DHT22;11953;49.010;8.608;2022-09-25T11:20:26;15.70;99.90
23550;DHT22;11953;49.010;8.608;2022-09-25T11:23:25;15.70;99.90
23550;DHT22;11953;49.010;8.608;2022-09-25T11:26:17;15.80;99.90
23550;DHT22;11953;49.010;8.608;2022-09-25T11:29:11;15.90;99.90
23550;DHT22;11953;49.010;8.608;2022-09-25T11:32:05;15.90;99.90
23550;DHT22;11953;49.010;8.608;2022-09-25T11:35:03;15.90;99.90
23550;DHT22;11953;49.010;8.608;2022-09-25T11:38:02;15.90;99.90
23550;DHT22;11953;49.010;8.608;2022-09-25T11:41:00;16.00;99.90
23550;DHT22;11953;49.010;8.608;2022-09-25T11:47:10;16.10;99.90
23550;DHT22;11953;49.010;8.608;2022-09-25T11:50:01;16.10;99.90
23550;DHT22;11953;49.010;8.608;2022-09-25T11:52:55;16.10;99.90
23550;DHT22;11953;49.010;8.608;2022-09-25T11:56:02;16.20;99.90
23550;DHT22;11953;49.010;8.608;2022-09-25T11:59:05;16.30;99.90
23550;DHT22;11953;49.010;8.608;2022-09-25T12:02:02;16.10;99.90
23550;DHT22;11953;49.010;8.608;2022-09-25T12:05:08;16.10;99.90
23550;DHT22;11953;49.010;8.608;2022-09-25T12:08:11;15.90;99.90
23550;DHT22;11953;49.010;8.608;2022-09-25T12:11:12;15.90;99.90
23550;DHT22;11953;49.010;8.608;2022-09-25T12:14:06;15.90;99.90
23550;DHT22;11953;49.010;8.608;2022-09-25T12:17:02;16.00;99.90
23550;DHT22;11953;49.010;8.608;2022-09-25T12:19:58;16.00;99.90
23550;DHT22;11953;49.010;8.608;2022-09-25T12:22:58;16.10;99.90
23550;DHT22;11953;49.010;8.608;2022-09-25T12:26:00;16.10;99.90
23550;DHT22;11953;49.010;8.608;2022-09-25T12:29:02;16.10;99.90
23550;DHT22;11953;49.010;8.608;2022-09-25T12:31:57;16.30;99.90
23550;DHT22;11953;49.010;8.608;2022-09-25T12:35:02;16.30;99.90
23550;DHT22;11953;49.010;8.608;2022-09-25T12:37:58;16.50;99.90
23550;DHT22;11953;49.010;8.608;2022-09-25T12:40:50;16.70;99.90
23550;DHT22;11953;49.010;8.608;2022-09-25T12:43:43;16.90;99.90
23550;DHT22;11953;49.010;8.608;2022-09-25T12:46:40;17.00;99.90
23550;DHT22;11953;49.010;8.608;2022-09-25T12:49:31;17.30;99.90
23550;DHT22;11953;49.010;8.608;2022-09-25T12:52:24;17.40;99.90
23550;DHT22;11953;49.010;8.608;2022-09-25T12:55:16;17.40;99.90
23550;DHT22;11953;49.010;8.608;2022-09-25T12:58:10;17.60;99.90
23550;DHT22;11953;49.010;8.608;2022-09-25T13:01:08;17.90;99.90
23550;DHT22;11953;49.010;8.608;2022-09-25T13:04:08;17.70;99.90
23550;DHT22;11953;49.010;8.608;2022-09-25T13:07:05;17.40;99.90
23550;DHT22;11953;49.010;8.608;2022-09-25T13:09:54;17.30;99.90
23550;DHT22;11953;49.010;8.608;2022-09-25T13:12:41;17.20;99.90
23550;DHT22;11953;49.010;8.608;2022-09-25T13:15:29;17.00;99.90
23550;DHT22;11953;49.010;8.608;2022-09-25T13:18:19;17.10;99.90
23550;DHT22;11953;49.010;8.608;2022-09-25T13:23:59;16.90;99.90
23550;DHT22;11953;49.010;8.608;2022-09-25T13:26:48;16.90;99.90
23550;DHT22;11953;49.010;8.608;2022-09-25T13:29:36;16.90;99.90
23550;DHT22;11953;49.010;8.608;2022-09-25T13:32:25;17.00;99.90
23550;DHT22;11953;49.010;8.608;2022-09-25T13:35:17;17.00;99.90
23550;DHT22;11953;49.010;8.608;2022-09-25T13:38:10;17.00;99.90
23550;DHT22;11953;49.010;8.608;2022-09-25T13:41:21;17.10;99.90
23550;DHT22;11953;49.010;8.608;2022-09-25T13:47:57;17.60;99.90
23550;DHT22;11953;49.010;8.608;2022-09-25T13:54:26;17.60;99.90
23550;DHT22;11953;49.010;8.608;2022-09-25T13:57:14;17.70;99.90
23550;DHT22;11953;49.010;8.608;2022-09-25T14:00:02;17.60;99.90
23550;DHT22;11953;49.010;8.608;2022-09-25T14:02:50;17.40;99.90
23550;DHT22;11953;49.010;8.608;2022-09-25T14:05:44;17.30;99.90
23550;DHT22;11953;49.010;8.608;2022-09-25T14:08:33;17.10;99.90
23550;DHT22;11953;49.010;8.608;2022-09-25T14:11:25;17.00;99.90
23550;DHT22;11953;49.010;8.608;2022-09-25T14:14:17;16.90;99.90
23550;DHT22;11953;49.010;8.608;2022-09-25T14:17:06;16.90;99.90
23550;DHT22;11953;49.010;8.608;2022-09-25T14:20:00;16.80;99.90
23550;DHT22;11953;49.010;8.608;2022-09-25T14:22:51;16.80;99.90
23550;DHT22;11953;49.010;8.608;2022-09-25T14:25:40;16.80;99.90
23550;DHT22;11953;49.010;8.608;2022-09-25T14:28:33;16.80;99.90
23550;DHT22;11953;49.010;8.608;2022-09-25T14:31:36;16.80;99.90
23550;DHT22;11953;49.010;8.608;2022-09-25T14:34:46;16.80;99.90
23550;DHT22;11953;49.010;8.608;2022-09-25T14:37:50;16.80;99.90
23550;DHT22;11953;49.010;8.608;2022-09-25T14:40:41;16.70;99.90
23550;DHT22;11953;49.010;8.608;2022-09-25T14:43:46;16.70;99.90
23550;DHT22;11953;49.010;8.608;2022-09-25T14:46:36;16.70;99.90
23550;DHT22;11953;49.010;8.608;2022-09-25T14:49:25;16.60;99.90
23550;DHT22;11953;49.010;8.608;2022-09-25T14:52:15;16.60;99.90
23550;DHT22;11953;49.010;8.608;2022-09-25T14:55:07;16.60;99.90
23550;DHT22;11953;49.010;8.608;2022-09-25T14:58:01;16.60;99.90
23550;DHT22;11953;49.010;8.608;2022-09-25T15:00:52;16.60;99.90
23550;DHT22;11953;49.010;8.608;2022-09-25T15:03:41;16.60;99.90
23550;DHT22;11953;49.010;8.608;2022-09-25T15:06:33;16.60;99.90
23550;DHT22;11953;49.010;8.608;2022-09-25T15:09:27;16.60;99.90
23550;DHT22;11953;49.010;8.608;2022-09-25T15:12:20;16.50;99.90
23550;DHT22;11953;49.010;8.608;2022-09-25T15:15:11;16.50;99.90
23550;DHT22;11953;49.010;8.608;2022-09-25T15:17:59;16.50;99.90
23550;DHT22;11953;49.010;8.608;2022-09-25T15:20:47;16.30;99.90
23550;DHT22;11953;49.010;8.608;2022-09-25T15:23:35;16.30;99.90
23550;DHT22;11953;49.010;8.608;2022-09-25T15:26:23;16.10;99.90
23550;DHT22;11953;49.010;8.608;2022-09-25T15:29:15;16.00;99.90
23550;DHT22;11953;49.010;8.608;2022-09-25T15:32:04;15.90;99.90
23550;DHT22;11953;49.010;8.608;2022-09-25T15:35:04;15.90;99.90
23550;DHT22;11953;49.010;8.608;2022-09-25T15:38:02;15.90;99.90
23550;DHT22;11953;49.010;8.608;2022-09-25T15:40:53;15.70;99.90
23550;DHT22;11953;49.010;8.608;2022-09-25T15:43:40;15.80;99.90
23550;DHT22;11953;49.010;8.608;2022-09-25T15:46:34;15.70;99.90
23550;DHT22;11953;49.010;8.608;2022-09-25T15:49:25;15.70;99.90
23550;DHT22;11953;49.010;8.608;2022-09-25T15:52:20;15.70;99.90
23550;DHT22;11953;49.010;8.608;2022-09-25T15:55:10;15.70;99.90
23550;DHT22;11953;49.010;8.608;2022-09-25T15:58:09;15.60;99.90
23550;DHT22;11953;49.010;8.608;2022-09-25T16:01:00;15.60;99.90
23550;DHT22;11953;49.010;8.608;2022-09-25T16:04:06;15.40;99.90
23550;DHT22;11953;49.010;8.608;2022-09-25T16:07:28;15.50;99.90
23550;DHT22;11953;49.010;8.608;2022-09-25T16:10:29;15.40;99.90
23550;DHT22;11953;49.010;8.608;2022-09-25T16:13:21;15.20;99.90
23550;DHT22;11953;49.010;8.608;2022-09-25T16:16:17;15.10;99.90
23550;DHT22;11953;49.010;8.608;2022-09-25T16:19:20;14.90;99.90
23550;DHT22;11953;49.010;8.608;2022-09-25T16:22:16;14.80;99.90
23550;DHT22;11953;49.010;8.608;2022-09-25T16:25:22;14.70;99.90
23550;DHT22;11953;49.010;8.608;2022-09-25T16:28:15;14.70;99.90
23550;DHT22;11953;49.010;8.608;2022-09-25T16:31:03;14.70;99.90
23550;DHT22;11953;49.010;8.608;2022-09-25T16:33:52;14.60;99.90
23550;DHT22;11953;49.010;8.608;2022-09-25T16:36:42;14.60;99.90
23550;DHT22;11953;49.010;8.608;2022-09-25T16:39:32;14.50;99.90
23550;DHT22;11953;49.010;8.608;2022-09-25T16:42:29;14.60;99.90
23550;DHT22;11953;49.010;8.608;2022-09-25T16:45:21;14.60;99.90
23550;DHT22;11953;49.010;8.608;2022-09-25T16:48:28;14.50;99.90
23550;DHT22;11953;49.010;8.608;2022-09-25T16:51:19;14.60;99.90
23550;DHT22;11953;49.010;8.608;2022-09-25T16:54:08;14.50;99.90
23550;DHT22;11953;49.010;8.608;2022-09-25T16:56:55;14.60;99.90
23550;DHT22;11953;49.010;8.608;2022-09-25T16:59:44;14.60;99.90
23550;DHT22;11953;49.010;8.608;2022-09-25T17:02:32;14.60;99.90
23550;DHT22;11953;49.010;8.608;2022-09-25T17:05:22;14.50;99.90
23550;DHT22;11953;49.010;8.608;2022-09-25T17:08:15;14.50;99.90
23550;DHT22;11953;49.010;8.608;2022-09-25T17:11:02;14.50;99.90
23550;DHT22;11953;49.010;8.608;2022-09-25T17:13:49;14.50;99.90
23550;DHT22;11953;49.010;8.608;2022-09-25T17:16:37;14.50;99.90
23550;DHT22;11953;49.010;8.608;2022-09-25T17:19:24;14.50;99.90
23550;DHT22;11953;49.010;8.608;2022-09-25T17:22:11;14.50;99.90
23550;DHT22;11953;49.010;8.608;2022-09-25T17:25:00;14.50;99.90
23550;DHT22;11953;49.010;8.608;2022-09-25T17:27:48;14.50;99.90
23550;DHT22;11953;49.010;8.608;2022-09-25T17:30:35;14.50;99.90
23550;DHT22;11953;49.010;8.608;2022-09-25T17:33:24;14.50;99.90
23550;DHT22;11953;49.010;8.608;2022-09-25T17:36:12;14.50;99.90
23550;DHT22;11953;49.010;8.608;2022-09-25T17:38:58;14.50;99.90
23550;DHT22;11953;49.010;8.608;2022-09-25T17:41:45;14.60;99.90
23550;DHT22;11953;49.010;8.608;2022-09-25T17:44:31;14.60;99.90
23550;DHT22;11953;49.010;8.608;2022-09-25T17:47:18;14.60;99.90
23550;DHT22;11953;49.010;8.608;2022-09-25T17:50:07;14.50;99.90
23550;DHT22;11953;49.010;8.608;2022-09-25T17:52:54;14.50;99.90
23550;DHT22;11953;49.010;8.608;2022-09-25T17:55:40;14.50;99.90
23550;DHT22;11953;49.010;8.608;2022-09-25T17:58:28;14.40;99.90
23550;DHT22;11953;49.010;8.608;2022-09-25T18:01:20;14.40;99.90
23550;DHT22;11953;49.010;8.608;2022-09-25T18:04:17;14.40;99.90
23550;DHT22;11953;49.010;8.608;2022-09-25T18:07:05;14.30;99.90
23550;DHT22;11953;49.010;8.608;2022-09-25T18:09:52;14.20;99.90
23550;DHT22;11953;49.010;8.608;2022-09-25T18:12:38;14.20;99.90